createdAt,value
2023-04-21T00:00:53.865Z,18.20
2023-04-21T00:03:23.989Z,18.50
2023-04-21T00:05:51.646Z,20.52
2023-04-21T00:08:19.732Z,21.25
2023-04-21T00:10:49.462Z,19.50
2023-04-21T00:13:16.494Z,18.90
2023-04-21T00:15:43.650Z,22.33
2023-04-21T00:18:10.832Z,21.30
2023-04-21T00:20:39.436Z,24.00
2023-04-21T00:23:06.414Z,18.23
2023-04-21T00:25:33.425Z,18.90
2023-04-21T00:28:00.465Z,23.80
2023-04-21T00:30:27.467Z,20.60
2023-04-21T00:32:54.560Z,19.63
2023-04-21T00:35:21.662Z,19.48
2023-04-21T00:37:50.376Z,27.52
2023-04-21T00:40:17.473Z,21.27
2023-04-21T00:42:44.426Z,24.30
2023-04-21T00:45:11.941Z,20.08
2023-04-21T00:47:38.979Z,22.63
2023-04-21T00:50:06.385Z,18.17
2023-04-21T00:52:35.102Z,20.63
2023-04-21T00:55:02.757Z,17.95
2023-04-21T00:57:31.909Z,21.48
2023-04-21T00:59:58.998Z,20.20
2023-04-21T01:02:26.391Z,20.90
2023-04-21T01:04:53.463Z,21.17
2023-04-21T01:07:21.032Z,21.05
2023-04-21T01:09:47.972Z,20.08
2023-04-21T01:12:15.134Z,27.65
2023-04-21T01:14:42.210Z,23.92
2023-04-21T01:17:09.423Z,22.10
2023-04-21T01:19:40.211Z,23.83
2023-04-21T01:22:11.288Z,23.80
2023-04-21T01:24:47.364Z,21.40
2023-04-21T01:27:18.842Z,19.98
2023-04-21T01:29:47.370Z,20.08
2023-04-21T01:32:17.720Z,20.75
2023-04-21T01:34:45.488Z,23.60
2023-04-21T01:37:15.688Z,19.70
2023-04-21T01:39:46.018Z,22.88
2023-04-21T01:42:14.197Z,20.35
2023-04-21T01:44:41.186Z,23.15
2023-04-21T01:47:09.318Z,22.63
2023-04-21T01:49:36.283Z,17.58
2023-04-21T01:52:03.331Z,19.35
2023-04-21T01:54:30.755Z,19.10
2023-04-21T01:56:58.174Z,22.48
2023-04-21T01:59:25.297Z,20.08
2023-04-21T02:01:52.346Z,18.35
2023-04-21T02:04:19.578Z,16.52
2023-04-21T02:06:46.557Z,18.30
2023-04-21T02:09:13.547Z,18.10
2023-04-21T02:11:40.522Z,21.58
2023-04-21T02:14:07.650Z,22.65
2023-04-21T02:16:34.673Z,17.35
2023-04-21T02:19:01.652Z,18.95
2023-04-21T02:21:28.848Z,18.92
2023-04-21T02:23:55.795Z,19.63
2023-04-21T02:26:22.829Z,16.88
2023-04-21T02:28:50.490Z,20.40
2023-04-21T02:31:18.935Z,21.33
2023-04-21T02:33:46.482Z,17.80
2023-04-21T02:36:13.669Z,21.02
2023-04-21T02:38:40.669Z,22.92
2023-04-21T02:41:07.703Z,21.90
2023-04-21T02:43:34.831Z,19.77
2023-04-21T02:46:09.062Z,18.25
2023-04-21T02:48:36.924Z,19.50
2023-04-21T02:51:04.847Z,20.55
2023-04-21T02:53:31.996Z,21.58
2023-04-21T02:55:59.024Z,18.77
2023-04-21T02:58:26.032Z,26.45
2023-04-21T03:00:52.989Z,20.45
2023-04-21T03:03:20.176Z,19.27
2023-04-21T03:05:47.358Z,18.73
2023-04-21T03:08:14.553Z,18.65
2023-04-21T03:10:41.765Z,21.13
2023-04-21T03:13:08.769Z,22.05
2023-04-21T03:15:35.782Z,20.27
2023-04-21T03:18:03.033Z,20.67
2023-04-21T03:20:30.010Z,20.88
2023-04-21T03:22:56.969Z,25.95
2023-04-21T03:25:24.125Z,21.45
2023-04-21T03:27:51.179Z,22.70
2023-04-21T03:30:18.113Z,23.25
2023-04-21T03:32:45.134Z,22.63
2023-04-21T03:35:12.255Z,19.55
2023-04-21T03:37:39.224Z,23.08
2023-04-21T03:40:07.303Z,22.60
2023-04-21T03:42:34.729Z,20.75
2023-04-21T03:45:06.458Z,20.02
2023-04-21T03:47:33.496Z,23.30
2023-04-21T03:50:00.665Z,23.90
2023-04-21T03:52:27.571Z,19.90
2023-04-21T03:54:54.550Z,26.70
2023-04-21T03:57:21.509Z,25.55
2023-04-21T03:59:48.472Z,20.65
2023-04-21T04:02:15.618Z,22.50
2023-04-21T04:04:42.753Z,21.80
2023-04-21T04:07:10.369Z,22.83
2023-04-21T04:09:37.340Z,23.10
2023-04-21T04:12:04.627Z,22.33
2023-04-21T04:14:31.632Z,24.17
2023-04-21T04:16:59.637Z,21.58
2023-04-21T04:19:32.789Z,22.67
2023-04-21T04:22:03.005Z,22.33
2023-04-21T04:24:33.606Z,24.27
2023-04-21T04:27:02.729Z,23.05
2023-04-21T04:29:30.035Z,24.08
2023-04-21T04:31:58.246Z,23.58
2023-04-21T04:34:25.309Z,24.63
2023-04-21T04:36:52.378Z,27.70
2023-04-21T04:39:19.590Z,25.42
2023-04-21T04:41:47.236Z,27.77
2023-04-21T04:44:16.044Z,26.58
2023-04-21T04:46:43.077Z,25.23
2023-04-21T04:49:10.095Z,23.50
2023-04-21T04:51:37.179Z,25.15
2023-04-21T04:54:04.338Z,24.02
2023-04-21T04:56:31.422Z,25.10
2023-04-21T04:58:58.410Z,26.02
2023-04-21T05:01:30.430Z,31.40
2023-04-21T05:03:57.982Z,23.00
2023-04-21T05:06:25.412Z,22.92
2023-04-21T05:08:52.438Z,25.98
2023-04-21T05:11:19.504Z,23.58
2023-04-21T05:13:46.490Z,24.65
2023-04-21T05:16:13.507Z,28.05
2023-04-21T05:18:40.836Z,27.65
2023-04-21T05:21:07.857Z,22.80
2023-04-21T05:23:34.857Z,22.35
2023-04-21T05:26:04.181Z,20.63
2023-04-21T05:28:32.092Z,21.75
2023-04-21T05:30:59.167Z,21.75
2023-04-21T05:33:27.080Z,22.00
2023-04-21T05:35:54.141Z,23.38
2023-04-21T05:38:21.278Z,21.65
2023-04-21T05:40:57.128Z,19.42
2023-04-21T05:43:24.101Z,19.52
2023-04-21T05:45:51.133Z,16.27
2023-04-21T05:48:18.289Z,30.98
2023-04-21T05:50:45.368Z,18.25
2023-04-21T05:53:12.365Z,20.48
2023-04-21T05:55:39.332Z,27.83
2023-04-21T05:58:06.376Z,20.25
2023-04-21T06:00:33.571Z,23.50
2023-04-21T06:03:00.811Z,18.20
2023-04-21T06:05:27.903Z,20.15
2023-04-21T06:07:54.931Z,19.08
2023-04-21T06:10:22.101Z,19.08
2023-04-21T06:12:49.299Z,22.17
2023-04-21T06:15:16.479Z,19.80
2023-04-21T06:17:43.543Z,17.55
2023-04-21T06:20:11.844Z,15.63
2023-04-21T06:22:38.834Z,19.88
2023-04-21T06:25:06.704Z,15.73
2023-04-21T06:27:33.816Z,15.57
2023-04-21T06:30:00.780Z,17.13
2023-04-21T06:32:27.802Z,18.02
2023-04-21T06:34:54.779Z,15.52
2023-04-21T06:37:21.761Z,14.05
2023-04-21T06:39:48.702Z,18.48
2023-04-21T06:42:15.697Z,17.70
2023-04-21T06:44:42.730Z,16.48
2023-04-21T06:47:09.840Z,16.02
2023-04-21T06:49:37.614Z,12.95
2023-04-21T06:52:05.248Z,12.68
2023-04-21T06:54:32.256Z,13.68
2023-04-21T06:56:59.213Z,21.30
2023-04-21T06:59:26.614Z,18.58
2023-04-21T07:01:53.747Z,13.60
2023-04-21T07:04:21.082Z,12.95
2023-04-21T07:06:49.341Z,16.80
2023-04-21T07:09:16.323Z,11.73
2023-04-21T07:11:43.234Z,16.77
2023-04-21T07:14:11.136Z,12.30
2023-04-21T07:16:38.129Z,14.38
2023-04-21T07:19:05.362Z,16.00
2023-04-21T07:21:36.327Z,10.45
2023-04-21T07:24:04.394Z,11.45
2023-04-21T07:26:32.102Z,9.88
2023-04-21T07:28:59.142Z,9.48
2023-04-21T07:31:26.210Z,10.23
2023-04-21T07:33:53.203Z,11.38
2023-04-21T07:36:20.229Z,9.30
2023-04-21T07:38:47.227Z,11.02
2023-04-21T07:41:14.297Z,7.95
2023-04-21T07:43:41.469Z,9.48
2023-04-21T07:46:08.494Z,8.75
2023-04-21T07:48:35.716Z,11.65
2023-04-21T07:51:03.890Z,9.02
2023-04-21T07:53:31.203Z,8.95
2023-04-21T07:55:58.876Z,11.77
2023-04-21T07:58:25.937Z,9.02
2023-04-21T08:00:52.986Z,15.45
2023-04-21T08:03:22.184Z,8.80
2023-04-21T08:05:51.034Z,11.47
2023-04-21T08:08:20.551Z,9.10
2023-04-21T08:10:47.664Z,6.87
2023-04-21T08:13:14.658Z,6.67
2023-04-21T08:15:41.787Z,9.67
2023-04-21T08:18:09.578Z,7.57
2023-04-21T08:20:36.687Z,6.80
2023-04-21T08:23:03.717Z,7.93
2023-04-21T08:25:31.174Z,10.93
2023-04-21T08:27:58.277Z,9.83
2023-04-21T08:30:28.041Z,7.50
2023-04-21T08:32:55.216Z,8.83
2023-04-21T08:35:22.167Z,13.50
2023-04-21T08:37:50.590Z,7.47
2023-04-21T08:40:19.129Z,7.43
2023-04-21T08:42:47.203Z,6.57
2023-04-21T08:45:14.258Z,9.50
2023-04-21T08:47:42.195Z,9.40
2023-04-21T08:50:13.872Z,6.60
2023-04-21T08:52:41.102Z,11.13
2023-04-21T08:55:10.045Z,8.67
2023-04-21T08:57:37.068Z,6.30
2023-04-21T09:00:07.441Z,4.77
2023-04-21T09:02:59.557Z,5.03
2023-04-21T09:05:30.557Z,10.67
2023-04-21T09:08:12.485Z,8.47
2023-04-21T09:10:48.044Z,7.87
2023-04-21T09:13:16.212Z,5.70
2023-04-21T09:15:45.607Z,9.63
2023-04-21T09:18:17.154Z,4.23
2023-04-21T09:20:45.775Z,6.87
2023-04-21T09:23:13.458Z,9.47
2023-04-21T09:25:45.182Z,6.50
2023-04-21T09:28:13.966Z,7.50
2023-04-21T09:30:43.410Z,6.07
2023-04-21T09:33:30.730Z,8.03
2023-04-21T09:36:03.294Z,11.47
2023-04-21T09:38:30.437Z,8.47
2023-04-21T09:41:00.527Z,9.17
2023-04-21T09:43:27.503Z,6.67
2023-04-21T09:45:56.129Z,6.40
2023-04-21T09:48:28.769Z,8.50
2023-04-21T09:53:29.749Z,9.47
2023-04-21T09:55:59.740Z,8.50
2023-04-21T09:58:31.436Z,9.80
2023-04-21T10:00:58.669Z,7.10
2023-04-21T10:03:28.928Z,7.03
2023-04-21T10:05:56.640Z,6.90
2023-04-21T10:08:23.797Z,8.37
2023-04-21T10:10:53.065Z,18.17
2023-04-21T10:13:20.413Z,8.30
2023-04-21T10:15:47.509Z,9.70
2023-04-21T10:18:23.764Z,8.23
2023-04-21T10:20:58.392Z,8.27
2023-04-21T10:23:44.077Z,9.03
2023-04-21T10:26:19.225Z,8.03
2023-04-21T10:28:57.507Z,7.47
2023-04-21T10:31:53.063Z,8.93
2023-04-21T10:34:25.941Z,8.23
2023-04-21T10:36:56.111Z,8.27
2023-04-21T10:39:32.024Z,14.27
2023-04-21T10:42:19.899Z,5.70
2023-04-21T10:45:02.350Z,7.17
2023-04-21T10:47:41.381Z,7.20
2023-04-21T10:50:29.678Z,8.10
2023-04-21T10:53:11.498Z,6.40
2023-04-21T10:55:39.355Z,10.77
2023-04-21T10:58:09.354Z,14.33
2023-04-21T11:00:40.453Z,8.93
2023-04-21T11:03:08.688Z,4.47
2023-04-21T11:05:38.874Z,6.60
2023-04-21T11:08:14.957Z,6.67
2023-04-21T11:10:56.054Z,9.63
2023-04-21T11:13:24.815Z,5.17
2023-04-21T11:16:03.474Z,10.13
2023-04-21T11:18:38.604Z,7.20
2023-04-21T11:21:24.924Z,8.97
2023-04-21T11:23:56.635Z,7.07
2023-04-21T11:26:35.079Z,6.53
2023-04-21T11:29:03.732Z,5.43
2023-04-21T11:31:31.235Z,6.00
2023-04-21T11:34:00.077Z,7.30
2023-04-21T11:36:27.531Z,6.13
2023-04-21T11:38:54.527Z,5.10
2023-04-21T11:41:25.659Z,7.87
2023-04-21T11:43:53.087Z,10.03
2023-04-21T11:46:24.997Z,5.30
2023-04-21T11:49:05.916Z,6.53
2023-04-21T11:51:43.125Z,3.90
2023-04-21T11:54:14.439Z,4.00
2023-04-21T11:56:43.165Z,14.63
2023-04-21T11:59:19.720Z,7.03
2023-04-21T12:01:48.207Z,8.97
2023-04-21T12:04:24.791Z,6.03
2023-04-21T12:07:03.010Z,4.40
2023-04-21T12:09:30.596Z,6.83
2023-04-21T12:11:59.132Z,4.70
2023-04-21T12:14:27.141Z,4.93
2023-04-21T12:16:56.025Z,3.87
2023-04-21T12:19:36.335Z,7.50
2023-04-21T12:22:11.801Z,11.50
2023-04-21T12:24:38.864Z,6.70
2023-04-21T12:27:06.761Z,6.47
2023-04-21T12:29:37.993Z,6.20
2023-04-21T12:32:06.611Z,4.60
2023-04-21T12:34:34.126Z,7.50
2023-04-21T12:37:01.349Z,13.53
2023-04-21T12:39:29.681Z,3.80
2023-04-21T12:41:57.905Z,5.53
2023-04-21T12:44:26.019Z,6.80
2023-04-21T12:46:53.855Z,5.37
2023-04-21T12:49:20.944Z,8.30
2023-04-21T12:51:50.229Z,3.20
2023-04-21T12:54:17.622Z,11.97
2023-04-21T12:56:44.957Z,3.50
2023-04-21T12:59:12.209Z,5.33
2023-04-21T13:01:40.709Z,5.43
2023-04-21T13:04:08.338Z,4.57
2023-04-21T13:06:35.715Z,10.63
2023-04-21T13:09:03.287Z,8.40
2023-04-21T13:11:30.432Z,4.20
2023-04-21T13:13:58.319Z,10.33
2023-04-21T13:16:26.292Z,4.67
2023-04-21T13:18:54.908Z,9.10
2023-04-21T13:21:21.850Z,8.10
2023-04-21T13:23:48.933Z,5.57
2023-04-21T13:26:16.320Z,6.03
2023-04-21T13:28:43.377Z,4.83
2023-04-21T13:31:10.745Z,5.13
2023-04-21T13:33:38.195Z,4.57
2023-04-21T13:36:05.532Z,4.13
2023-04-21T13:38:33.104Z,6.83
2023-04-21T13:41:00.096Z,10.33
2023-04-21T13:43:27.212Z,5.83
2023-04-21T13:45:54.250Z,5.57
2023-04-21T13:48:22.184Z,5.23
2023-04-21T13:50:49.293Z,5.23
2023-04-21T13:53:17.626Z,5.70
2023-04-21T13:55:45.915Z,5.80
2023-04-21T13:58:14.317Z,6.13
2023-04-21T14:00:41.677Z,4.63
2023-04-21T14:03:10.010Z,4.20
2023-04-21T14:05:37.378Z,5.27
2023-04-21T14:08:04.658Z,3.60
2023-04-21T14:10:31.606Z,4.57
2023-04-21T14:12:58.630Z,6.43
2023-04-21T14:15:26.512Z,5.27
2023-04-21T14:17:53.801Z,7.07
2023-04-21T14:20:20.959Z,5.70
2023-04-21T14:22:48.092Z,4.83
2023-04-21T14:25:15.270Z,6.70
2023-04-21T14:27:42.329Z,7.80
2023-04-21T14:30:10.679Z,8.57
2023-04-21T14:32:37.935Z,7.63
2023-04-21T14:35:05.887Z,5.60
2023-04-21T14:37:33.376Z,6.53
2023-04-21T14:40:00.370Z,7.23
2023-04-21T14:42:27.495Z,7.70
2023-04-21T14:44:54.480Z,5.47
2023-04-21T14:47:22.268Z,3.30
2023-04-21T14:49:55.040Z,3.10
2023-04-21T14:52:24.793Z,3.97
2023-04-21T14:54:51.846Z,3.40
2023-04-21T14:57:21.049Z,5.17
2023-04-21T14:59:52.587Z,7.93
2023-04-21T15:02:21.113Z,5.73
2023-04-21T15:04:48.685Z,5.23
2023-04-21T15:07:18.780Z,3.97
2023-04-21T15:09:50.209Z,4.43
2023-04-21T15:12:17.355Z,6.63
2023-04-21T15:14:44.752Z,6.50
2023-04-21T15:17:11.823Z,11.93
2023-04-21T15:19:38.930Z,6.23
2023-04-21T15:22:06.297Z,6.50
2023-04-21T15:24:33.360Z,11.60
2023-04-21T15:27:00.497Z,4.93
2023-04-21T15:29:27.476Z,7.50
2023-04-21T15:31:54.490Z,4.20
2023-04-21T15:34:21.538Z,7.43
2023-04-21T15:36:48.681Z,6.43
2023-04-21T15:39:15.759Z,4.03
2023-04-21T15:41:42.907Z,6.20
2023-04-21T15:44:10.852Z,5.27
2023-04-21T15:46:38.026Z,7.23
2023-04-21T15:49:05.226Z,5.67
2023-04-21T15:51:33.465Z,7.00
2023-04-21T15:54:00.598Z,6.30
2023-04-21T15:56:27.599Z,6.00
2023-04-21T15:58:54.578Z,6.87
2023-04-21T16:01:22.544Z,9.87
2023-04-21T16:03:50.249Z,5.37
2023-04-21T16:06:17.345Z,5.50
2023-04-21T16:08:44.972Z,5.23
2023-04-21T16:11:12.288Z,5.10
2023-04-21T16:13:39.335Z,4.23
2023-04-21T16:16:07.231Z,9.03
2023-04-21T16:18:34.554Z,6.33
2023-04-21T16:21:01.768Z,6.00
2023-04-21T16:23:28.817Z,4.30
2023-04-21T16:25:56.064Z,4.23
2023-04-21T16:28:23.307Z,12.03
2023-04-21T16:30:50.575Z,5.80
2023-04-21T16:33:17.752Z,12.33
2023-04-21T16:35:44.852Z,4.83
2023-04-21T16:38:12.053Z,7.07
2023-04-21T16:40:39.166Z,8.03
2023-04-21T16:43:06.211Z,3.50
2023-04-21T16:45:33.174Z,11.20
2023-04-21T16:48:00.379Z,6.73
2023-04-21T16:50:27.505Z,4.53
2023-04-21T16:52:54.579Z,6.87
2023-04-21T16:55:21.672Z,4.77
2023-04-21T16:57:48.788Z,7.60
2023-04-21T17:00:16.522Z,6.30
2023-04-21T17:02:43.667Z,8.73
2023-04-21T17:05:12.395Z,6.07
2023-04-21T17:07:42.639Z,3.93
2023-04-21T17:10:09.901Z,6.53
2023-04-21T17:12:37.005Z,5.93
2023-04-21T17:15:05.203Z,7.17
2023-04-21T17:17:43.284Z,6.70
2023-04-21T17:20:12.208Z,8.00
2023-04-21T17:22:40.184Z,5.30
2023-04-21T17:25:08.389Z,4.43
2023-04-21T17:27:36.779Z,4.20
2023-04-21T17:30:05.339Z,3.63
2023-04-21T17:32:34.005Z,7.47
2023-04-21T17:35:01.559Z,7.70
2023-04-21T17:37:30.521Z,7.20
2023-04-21T17:40:00.364Z,5.37
2023-04-21T17:42:29.326Z,5.37
2023-04-21T17:44:56.267Z,5.00
2023-04-21T17:47:23.298Z,6.13
2023-04-21T17:49:50.421Z,5.33
2023-04-21T17:52:17.516Z,7.13
2023-04-21T17:54:44.556Z,6.97
2023-04-21T17:57:12.026Z,8.60
2023-04-21T17:59:39.810Z,6.07
2023-04-21T18:02:08.005Z,8.43
2023-04-21T18:04:35.641Z,9.27
2023-04-21T18:07:03.830Z,12.13
2023-04-21T18:09:31.729Z,8.10
2023-04-21T18:11:59.094Z,11.97
2023-04-21T18:14:26.857Z,7.73
2023-04-21T18:16:54.373Z,9.43
2023-04-21T18:19:21.490Z,10.23
2023-04-21T18:21:48.635Z,10.17
2023-04-21T18:24:15.830Z,10.17
2023-04-21T18:26:44.292Z,9.30
2023-04-21T18:29:11.849Z,9.63
2023-04-21T18:31:39.908Z,10.17
2023-04-21T18:34:08.744Z,6.27
2023-04-21T18:36:37.721Z,7.53
2023-04-21T18:39:05.873Z,5.90
2023-04-21T18:41:33.712Z,8.60
2023-04-21T18:44:01.207Z,10.17
2023-04-21T18:46:28.399Z,6.47
2023-04-21T18:48:56.179Z,5.77
2023-04-21T18:51:23.948Z,8.63
2023-04-21T18:53:53.010Z,6.53
2023-04-21T18:56:20.516Z,7.53
2023-04-21T18:58:47.784Z,7.67
2023-04-21T19:01:16.712Z,9.33
2023-04-21T19:03:45.184Z,5.83
2023-04-21T19:06:12.427Z,7.30
2023-04-21T19:08:42.819Z,8.40
2023-04-21T19:11:18.738Z,11.73
2023-04-21T19:13:47.418Z,10.68
2023-04-21T19:16:16.629Z,8.15
2023-04-21T19:18:43.962Z,11.57
2023-04-21T19:21:14.028Z,10.27
2023-04-21T19:23:42.448Z,12.73
2023-04-21T19:26:12.483Z,15.02
2023-04-21T19:28:41.223Z,9.00
2023-04-21T19:31:09.148Z,6.35
2023-04-21T19:33:37.293Z,7.10
2023-04-21T19:36:05.142Z,8.13
2023-04-21T19:38:33.559Z,6.40
2023-04-21T19:41:00.812Z,8.77
2023-04-21T19:43:28.475Z,13.55
2023-04-21T19:45:55.981Z,9.30
2023-04-21T19:48:23.242Z,7.10
2023-04-21T19:50:50.518Z,8.93
2023-04-21T19:53:18.924Z,8.48
2023-04-21T19:55:47.003Z,9.75
2023-04-21T19:58:22.086Z,11.70
2023-04-21T20:00:56.392Z,8.15
2023-04-21T20:03:24.302Z,7.35
2023-04-21T20:05:52.284Z,11.10
2023-04-21T20:08:19.554Z,9.93
2023-04-21T20:10:47.288Z,9.55
2023-04-21T20:13:14.737Z,8.05
2023-04-21T20:15:42.521Z,6.30
2023-04-21T20:18:10.370Z,6.45
2023-04-21T20:20:37.966Z,9.18
2023-04-21T20:23:05.898Z,11.88
2023-04-21T20:25:33.304Z,8.65
2023-04-21T20:28:01.045Z,10.70
2023-04-21T20:30:28.577Z,7.00
2023-04-21T20:32:56.437Z,5.07
2023-04-21T20:35:23.883Z,7.78
2023-04-21T20:37:51.324Z,6.15
2023-04-21T20:40:19.137Z,6.97
2023-04-21T20:42:46.226Z,6.65
2023-04-21T20:45:13.681Z,7.45
2023-04-21T20:47:41.302Z,6.78
2023-04-21T20:50:09.095Z,6.57
2023-04-21T20:52:36.864Z,14.65
2023-04-21T20:55:04.026Z,13.73
2023-04-21T20:57:31.089Z,12.30
2023-04-21T20:59:58.237Z,11.10
2023-04-21T21:02:25.385Z,8.75
2023-04-21T21:04:52.503Z,8.18
2023-04-21T21:07:19.577Z,18.35
2023-04-21T21:09:46.633Z,7.70
2023-04-21T21:12:13.663Z,8.20
2023-04-21T21:14:40.747Z,8.32
2023-04-21T21:17:08.330Z,7.88
2023-04-21T21:19:35.560Z,7.10
2023-04-21T21:22:02.558Z,7.60
2023-04-21T21:24:29.661Z,8.30
2023-04-21T21:26:57.443Z,7.32
2023-04-21T21:29:24.799Z,7.85
2023-04-21T21:31:51.806Z,14.55
2023-04-21T21:34:18.804Z,10.63
2023-04-21T21:36:45.984Z,9.05
2023-04-21T21:39:12.967Z,7.15
2023-04-21T21:41:40.052Z,6.03
2023-04-21T21:44:07.922Z,6.93
2023-04-21T21:46:34.937Z,8.32
2023-04-21T21:49:01.925Z,9.07
2023-04-21T21:51:29.049Z,8.13
2023-04-21T21:53:56.057Z,6.85
2023-04-21T21:56:24.306Z,11.48
2023-04-21T21:58:51.354Z,7.93
2023-04-21T22:01:18.472Z,9.20
2023-04-21T22:03:45.864Z,7.60
2023-04-21T22:06:14.902Z,9.25
2023-04-21T22:08:43.892Z,8.07
2023-04-21T22:11:11.078Z,13.20
2023-04-21T22:13:38.036Z,10.93
2023-04-21T22:16:05.182Z,12.00
2023-04-21T22:18:32.198Z,16.55
2023-04-21T22:20:59.814Z,15.13
2023-04-21T22:23:26.987Z,9.93
2023-04-21T22:25:53.954Z,9.15
2023-04-21T22:28:21.056Z,11.75
2023-04-21T22:30:48.079Z,7.78
2023-04-21T22:33:15.099Z,9.90
2023-04-21T22:35:42.098Z,10.20
2023-04-21T22:38:09.060Z,7.65
2023-04-21T22:40:36.184Z,10.32
2023-04-21T22:43:03.901Z,10.02
2023-04-21T22:45:30.897Z,10.43
2023-04-21T22:47:58.040Z,9.88
2023-04-21T22:50:25.738Z,9.30
2023-04-21T22:52:52.866Z,10.60
2023-04-21T22:55:19.835Z,12.23
2023-04-21T22:57:46.903Z,9.63
2023-04-21T23:00:15.591Z,10.63
2023-04-21T23:02:42.805Z,8.80
2023-04-21T23:05:10.069Z,9.93
2023-04-21T23:07:37.069Z,8.77
2023-04-21T23:10:04.339Z,8.57
2023-04-21T23:12:31.395Z,9.00
2023-04-21T23:14:58.364Z,8.73
2023-04-21T23:17:25.543Z,11.00
2023-04-21T23:19:52.673Z,8.27
2023-04-21T23:22:19.686Z,8.38
2023-04-21T23:24:46.694Z,8.63
2023-04-21T23:27:13.651Z,7.55
2023-04-21T23:29:40.939Z,9.52
2023-04-21T23:32:08.214Z,8.85
2023-04-21T23:34:35.444Z,7.65
2023-04-21T23:37:02.504Z,10.23
2023-04-21T23:39:29.565Z,9.43
2023-04-21T23:41:56.640Z,7.00
2023-04-21T23:44:23.720Z,12.55
2023-04-21T23:46:51.356Z,10.15
2023-04-21T23:49:18.364Z,8.95
2023-04-21T23:51:45.401Z,7.78
2023-04-21T23:54:12.354Z,11.85
2023-04-21T23:56:39.335Z,9.45
2023-04-21T23:59:07.099Z,7.20
